createdAt,value
2019-01-31T00:00:38.964Z,82.00
2019-01-31T00:01:39.005Z,81.96
2019-01-31T00:02:38.945Z,82.63
2019-01-31T00:03:38.945Z,82.00
2019-01-31T00:04:38.945Z,82.10
2019-01-31T00:05:38.976Z,82.28
2019-01-31T00:06:38.897Z,81.90
2019-01-31T00:07:38.916Z,81.76
2019-01-31T00:08:45.656Z,81.34
2019-01-31T00:09:39.907Z,81.86
2019-01-31T00:10:38.837Z,82.07
2019-01-31T00:11:38.828Z,81.76
2019-01-31T00:12:38.848Z,81.96
2019-01-31T00:13:38.810Z,82.53
2019-01-31T00:14:38.830Z,82.21
2019-01-31T00:15:38.790Z,81.90
2019-01-31T00:16:38.780Z,82.21
2019-01-31T00:17:38.759Z,81.86
2019-01-31T00:18:38.860Z,81.79
2019-01-31T00:19:38.750Z,81.16
2019-01-31T00:20:38.791Z,81.02
2019-01-31T00:21:38.727Z,81.02
2019-01-31T00:22:38.706Z,80.92
2019-01-31T00:23:38.806Z,81.65
2019-01-31T00:24:38.702Z,82.48
2019-01-31T00:25:39.763Z,81.90
2019-01-31T00:26:38.683Z,81.34
2019-01-31T00:27:38.657Z,81.48
2019-01-31T00:28:38.654Z,81.38
2019-01-31T00:29:38.755Z,81.48
2019-01-31T00:30:38.624Z,81.38
2019-01-31T00:31:38.645Z,81.90
2019-01-31T00:32:38.716Z,81.96
2019-01-31T00:33:38.596Z,81.90
2019-01-31T00:34:39.616Z,81.48
2019-01-31T00:35:38.577Z,81.38
2019-01-31T00:36:39.607Z,81.38
2019-01-31T00:37:38.547Z,81.90
2019-01-31T00:38:38.549Z,82.10
2019-01-31T00:39:38.639Z,81.48
2019-01-31T00:40:38.518Z,82.10
2019-01-31T00:41:38.619Z,82.21
2019-01-31T00:42:38.489Z,81.38
2019-01-31T00:43:38.480Z,81.76
2019-01-31T00:44:38.570Z,81.48
2019-01-31T00:45:38.461Z,81.79
2019-01-31T00:46:38.561Z,81.59
2019-01-31T00:47:38.432Z,81.48
2019-01-31T00:48:38.431Z,81.06
2019-01-31T00:49:38.424Z,80.75
2019-01-31T00:50:38.433Z,81.59
2019-01-31T00:51:38.383Z,81.79
2019-01-31T00:52:38.550Z,82.10
2019-01-31T00:53:38.365Z,81.48
2019-01-31T00:54:38.444Z,81.59
2019-01-31T00:55:38.344Z,82.10
2019-01-31T00:56:38.441Z,82.00
2019-01-31T00:57:38.324Z,82.10
2019-01-31T00:58:39.396Z,82.25
2019-01-31T00:59:38.305Z,82.21
2019-01-31T01:00:38.305Z,82.00
2019-01-31T01:01:38.276Z,82.14
2019-01-31T01:02:38.351Z,81.79
2019-01-31T01:03:38.332Z,82.14
2019-01-31T01:04:38.267Z,82.00
2019-01-31T01:05:38.227Z,82.10
2019-01-31T01:06:38.318Z,82.10
2019-01-31T01:07:38.218Z,82.21
2019-01-31T01:08:38.261Z,81.90
2019-01-31T01:09:38.210Z,82.35
2019-01-31T01:10:46.170Z,82.00
2019-01-31T01:11:38.169Z,81.62
2019-01-31T01:12:38.231Z,81.73
2019-01-31T01:13:38.151Z,81.38
2019-01-31T01:14:38.211Z,81.83
2019-01-31T01:15:38.133Z,81.62
2019-01-31T01:16:38.202Z,80.89
2019-01-31T01:17:38.102Z,80.65
2019-01-31T01:18:38.183Z,80.47
2019-01-31T01:19:38.090Z,80.54
2019-01-31T01:20:38.084Z,80.33
2019-01-31T01:21:38.064Z,81.06
2019-01-31T01:22:38.104Z,81.48
2019-01-31T01:23:38.035Z,80.85
2019-01-31T01:24:39.066Z,80.79
2019-01-31T01:25:38.045Z,81.27
2019-01-31T01:26:38.116Z,81.31
2019-01-31T01:27:38.046Z,80.16
2019-01-31T01:28:37.979Z,80.05
2019-01-31T01:29:37.976Z,81.21
2019-01-31T01:30:37.967Z,81.83
2019-01-31T01:31:39.039Z,80.79
2019-01-31T01:32:37.927Z,80.05
2019-01-31T01:33:37.947Z,79.64
2019-01-31T01:34:37.909Z,79.85
2019-01-31T01:35:37.930Z,80.37
2019-01-31T01:36:37.879Z,78.49
2019-01-31T01:37:37.919Z,78.84
2019-01-31T01:38:37.862Z,79.22
2019-01-31T01:39:37.960Z,79.78
2019-01-31T01:40:37.861Z,79.36
2019-01-31T01:41:37.831Z,79.15
2019-01-31T01:42:37.811Z,79.05
2019-01-31T01:43:37.821Z,78.88
2019-01-31T01:44:37.791Z,79.08
2019-01-31T01:45:37.923Z,79.36
2019-01-31T01:46:37.783Z,80.55
2019-01-31T01:47:38.833Z,80.96
2019-01-31T01:48:37.753Z,81.28
2019-01-31T01:49:37.844Z,81.11
2019-01-31T01:50:37.754Z,81.18
2019-01-31T01:51:37.774Z,81.52
2019-01-31T01:52:37.719Z,81.95
2019-01-31T01:53:37.815Z,82.71
2019-01-31T01:54:37.685Z,82.29
2019-01-31T01:55:37.795Z,81.98
2019-01-31T01:56:37.670Z,82.09
2019-01-31T01:57:37.658Z,82.40
2019-01-31T01:58:37.648Z,83.27
2019-01-31T01:59:37.717Z,83.48
2019-01-31T02:00:37.638Z,83.59
2019-01-31T02:01:37.657Z,83.38
2019-01-31T02:02:37.599Z,83.38
2019-01-31T02:03:37.688Z,83.06
2019-01-31T02:04:37.579Z,83.27
2019-01-31T02:05:40.749Z,82.79
2019-01-31T02:06:37.559Z,81.53
2019-01-31T02:07:38.580Z,80.76
2019-01-31T02:08:37.531Z,80.97
2019-01-31T02:09:37.592Z,80.76
2019-01-31T02:10:37.511Z,81.39
2019-01-31T02:11:37.531Z,82.12
2019-01-31T02:12:37.481Z,81.81
2019-01-31T02:13:37.473Z,81.63
2019-01-31T02:14:37.533Z,81.81
2019-01-31T02:15:37.469Z,81.70
2019-01-31T02:16:37.463Z,81.81
2019-01-31T02:17:37.423Z,82.06
2019-01-31T02:18:37.415Z,81.63
2019-01-31T02:19:37.414Z,82.12
2019-01-31T02:20:37.484Z,82.16
2019-01-31T02:21:37.375Z,82.23
2019-01-31T02:22:38.396Z,82.12
2019-01-31T02:23:37.356Z,82.43
2019-01-31T02:24:37.348Z,81.49
2019-01-31T02:25:37.437Z,81.39
2019-01-31T02:26:37.338Z,81.18
2019-01-31T02:27:37.428Z,81.07
2019-01-31T02:28:37.314Z,81.18
2019-01-31T02:29:37.298Z,80.62
2019-01-31T02:30:37.299Z,80.76
2019-01-31T02:31:38.319Z,80.52
2019-01-31T02:32:37.270Z,80.83
2019-01-31T02:33:37.329Z,81.56
2019-01-31T02:34:37.300Z,80.16
2019-01-31T02:35:37.252Z,79.64
2019-01-31T02:36:37.332Z,79.02
2019-01-31T02:37:37.211Z,78.60
2019-01-31T02:38:38.295Z,79.08
2019-01-31T02:39:43.109Z,78.56
2019-01-31T02:40:38.273Z,78.77
2019-01-31T02:41:37.174Z,78.25
2019-01-31T02:42:37.234Z,78.14
2019-01-31T02:43:37.143Z,78.11
2019-01-31T02:44:37.173Z,78.11
2019-01-31T02:45:38.204Z,78.35
2019-01-31T02:46:37.104Z,79.57
2019-01-31T02:47:37.175Z,78.98
2019-01-31T02:48:37.075Z,79.71
2019-01-31T02:49:38.136Z,78.98
2019-01-31T02:50:37.115Z,78.88
2019-01-31T02:51:37.110Z,79.40
2019-01-31T02:52:37.117Z,79.08
2019-01-31T02:53:37.038Z,78.77
2019-01-31T02:54:37.053Z,79.92
2019-01-31T02:55:37.018Z,80.86
2019-01-31T02:56:37.087Z,80.76
2019-01-31T02:57:36.979Z,79.82
2019-01-31T02:58:37.019Z,79.05
2019-01-31T02:59:36.960Z,79.50
2019-01-31T03:00:38.019Z,77.94
2019-01-31T03:01:36.930Z,78.04
2019-01-31T03:02:37.000Z,78.32
2019-01-31T03:03:36.924Z,78.94
2019-01-31T03:04:36.921Z,78.25
2019-01-31T03:05:36.911Z,77.94
2019-01-31T03:06:36.893Z,77.38
2019-01-31T03:07:36.872Z,77.94
2019-01-31T03:08:36.909Z,78.25
2019-01-31T03:09:36.854Z,78.88
2019-01-31T03:10:39.336Z,79.19
2019-01-31T03:11:36.913Z,79.19
2019-01-31T03:12:36.825Z,79.92
2019-01-31T03:13:36.844Z,79.50
2019-01-31T03:14:36.808Z,79.92
2019-01-31T03:15:36.824Z,79.75
2019-01-31T03:16:36.777Z,79.44
2019-01-31T03:17:36.815Z,80.16
2019-01-31T03:18:36.755Z,81.00
2019-01-31T03:19:36.845Z,81.56
2019-01-31T03:20:36.769Z,81.77
2019-01-31T03:21:36.789Z,80.87
2019-01-31T03:22:36.717Z,80.66
2019-01-31T03:23:38.849Z,80.97
2019-01-31T03:24:36.678Z,81.07
2019-01-31T03:25:44.739Z,81.70
2019-01-31T03:26:36.667Z,81.92
2019-01-31T03:27:36.654Z,81.60
2019-01-31T03:28:36.629Z,81.81
2019-01-31T03:29:37.654Z,82.12
2019-01-31T03:30:36.622Z,82.26
2019-01-31T03:31:36.702Z,82.37
2019-01-31T03:32:36.614Z,82.26
2019-01-31T03:33:36.703Z,82.06
2019-01-31T03:34:36.574Z,82.47
2019-01-31T03:35:36.632Z,82.06
2019-01-31T03:36:36.566Z,82.58
2019-01-31T03:37:36.564Z,82.06
2019-01-31T03:38:36.525Z,82.37
2019-01-31T03:39:36.605Z,82.68
2019-01-31T03:40:36.504Z,82.37
2019-01-31T03:41:36.593Z,83.00
2019-01-31T03:42:36.517Z,82.47
2019-01-31T03:43:36.476Z,82.40
2019-01-31T03:44:36.556Z,82.09
2019-01-31T03:45:36.455Z,82.20
2019-01-31T03:46:37.556Z,82.30
2019-01-31T03:47:36.437Z,83.14
2019-01-31T03:48:36.427Z,83.87
2019-01-31T03:49:36.430Z,83.35
2019-01-31T03:50:36.457Z,83.45
2019-01-31T03:51:36.406Z,83.35
2019-01-31T03:52:36.389Z,83.25
2019-01-31T03:53:36.371Z,83.59
2019-01-31T03:54:36.361Z,83.70
2019-01-31T03:55:36.399Z,83.59
2019-01-31T03:56:36.353Z,83.91
2019-01-31T03:57:36.430Z,83.81
2019-01-31T03:58:36.311Z,83.70
2019-01-31T03:59:36.302Z,84.12
2019-01-31T04:00:36.294Z,84.68
2019-01-31T04:01:36.352Z,84.68
2019-01-31T04:02:36.261Z,84.27
2019-01-31T04:03:36.351Z,85.00
2019-01-31T04:04:36.302Z,84.72
2019-01-31T04:05:36.222Z,85.66
2019-01-31T04:06:36.283Z,85.94
2019-01-31T04:07:36.213Z,86.82
2019-01-31T04:08:36.278Z,86.61
2019-01-31T04:09:36.178Z,86.61
2019-01-31T04:10:36.205Z,85.77
2019-01-31T04:11:36.175Z,85.66
2019-01-31T04:12:36.249Z,85.66
2019-01-31T04:13:36.147Z,85.88
2019-01-31T04:14:36.176Z,85.98
2019-01-31T04:15:36.115Z,85.98
2019-01-31T04:16:36.156Z,86.82
2019-01-31T04:17:36.089Z,86.92
2019-01-31T04:18:36.148Z,86.08
2019-01-31T04:19:36.078Z,85.98
2019-01-31T04:20:36.067Z,86.65
2019-01-31T04:21:36.068Z,87.17
2019-01-31T04:22:36.128Z,87.17
2019-01-31T04:23:36.038Z,87.28
2019-01-31T04:24:37.089Z,86.51
2019-01-31T04:25:36.010Z,85.56
2019-01-31T04:26:36.051Z,85.66
2019-01-31T04:27:35.990Z,85.81
2019-01-31T04:28:36.031Z,85.28
2019-01-31T04:29:35.971Z,85.25
2019-01-31T04:30:36.072Z,85.08
2019-01-31T04:31:35.962Z,85.39
2019-01-31T04:32:36.003Z,85.08
2019-01-31T04:33:35.922Z,85.28
2019-01-31T04:34:35.943Z,85.81
2019-01-31T04:35:35.924Z,86.23
2019-01-31T04:36:35.904Z,86.69
2019-01-31T04:37:35.884Z,87.38
2019-01-31T04:38:35.917Z,87.11
2019-01-31T04:39:35.844Z,87.00
2019-01-31T04:40:35.955Z,86.90
2019-01-31T04:41:35.848Z,87.21
2019-01-31T04:42:35.886Z,87.11
2019-01-31T04:43:35.806Z,87.00
2019-01-31T04:44:35.816Z,87.11
2019-01-31T04:45:35.776Z,87.21
2019-01-31T04:46:35.898Z,87.32
2019-01-31T04:47:35.763Z,87.52
2019-01-31T04:48:35.787Z,87.67
2019-01-31T04:49:35.739Z,87.00
2019-01-31T04:50:35.830Z,87.04
2019-01-31T04:51:35.731Z,87.36
2019-01-31T04:52:35.699Z,87.25
2019-01-31T04:53:35.729Z,87.88
2019-01-31T04:54:35.680Z,87.77
2019-01-31T04:55:35.759Z,87.57
2019-01-31T04:56:35.670Z,87.88
2019-01-31T04:57:35.666Z,88.20
2019-01-31T04:58:35.641Z,87.92
2019-01-31T04:59:35.854Z,87.82
2019-01-31T05:00:35.621Z,88.02
2019-01-31T05:01:35.732Z,88.55
2019-01-31T05:02:35.608Z,88.87
2019-01-31T05:03:35.593Z,88.55
2019-01-31T05:04:35.691Z,88.66
2019-01-31T05:05:35.569Z,88.51
2019-01-31T05:06:35.674Z,88.09
2019-01-31T05:07:35.547Z,87.88
2019-01-31T05:08:35.535Z,87.77
2019-01-31T05:09:35.524Z,87.60
2019-01-31T05:10:42.695Z,88.24
2019-01-31T05:11:36.516Z,87.99
2019-01-31T05:12:35.537Z,88.02
2019-01-31T05:13:35.479Z,87.88
2019-01-31T05:14:35.568Z,87.77
2019-01-31T05:15:35.458Z,87.67
2019-01-31T05:16:35.548Z,87.36
2019-01-31T05:17:35.428Z,87.25
2019-01-31T05:18:35.438Z,87.67
2019-01-31T05:19:35.399Z,87.67
2019-01-31T05:20:35.469Z,87.57
2019-01-31T05:21:35.390Z,87.36
2019-01-31T05:22:35.410Z,87.36
2019-01-31T05:23:35.364Z,87.19
2019-01-31T05:24:35.361Z,87.50
2019-01-31T05:25:35.340Z,87.29
2019-01-31T05:26:35.420Z,87.29
2019-01-31T05:27:35.332Z,87.65
2019-01-31T05:28:35.412Z,87.96
2019-01-31T05:29:35.292Z,88.07
2019-01-31T05:30:35.352Z,89.32
2019-01-31T05:31:35.272Z,88.91
2019-01-31T05:32:35.344Z,89.01
2019-01-31T05:33:35.247Z,89.01
2019-01-31T05:34:35.325Z,88.76
2019-01-31T05:35:35.234Z,89.29
2019-01-31T05:36:35.264Z,88.17
2019-01-31T05:37:35.225Z,88.28
2019-01-31T05:38:35.306Z,88.59
2019-01-31T05:39:35.289Z,87.96
2019-01-31T05:40:35.175Z,87.68
2019-01-31T05:41:35.206Z,87.79
2019-01-31T05:42:35.176Z,88.32
2019-01-31T05:43:35.247Z,88.42
2019-01-31T05:44:35.137Z,88.95
2019-01-31T05:45:35.128Z,89.16
2019-01-31T05:46:35.117Z,89.05
2019-01-31T05:47:35.167Z,89.05
2019-01-31T05:48:35.088Z,88.89
2019-01-31T05:49:36.169Z,89.05
2019-01-31T05:50:35.069Z,89.41
2019-01-31T05:51:35.080Z,89.26
2019-01-31T05:52:35.061Z,89.30
2019-01-31T05:53:35.127Z,89.16
2019-01-31T05:54:35.021Z,89.20
2019-01-31T05:55:35.062Z,89.41
2019-01-31T05:56:35.021Z,89.83
2019-01-31T05:57:34.994Z,89.94
2019-01-31T05:58:35.065Z,89.94
2019-01-31T05:59:34.962Z,89.51
2019-01-31T06:00:34.993Z,88.92
2019-01-31T06:01:34.968Z,89.56
2019-01-31T06:02:34.954Z,89.34
2019-01-31T06:03:35.013Z,89.45
2019-01-31T06:04:34.905Z,89.45
2019-01-31T06:05:34.935Z,89.45
2019-01-31T06:06:34.885Z,89.24
2019-01-31T06:07:35.935Z,89.87
2019-01-31T06:08:34.866Z,89.98
2019-01-31T06:09:34.916Z,90.23
2019-01-31T06:10:34.844Z,90.19
2019-01-31T06:11:34.957Z,90.19
2019-01-31T06:12:34.848Z,89.91
2019-01-31T06:13:34.886Z,90.01
2019-01-31T06:14:34.810Z,90.65
2019-01-31T06:15:41.678Z,90.50
2019-01-31T06:16:34.788Z,90.75
2019-01-31T06:17:34.788Z,91.07
2019-01-31T06:18:34.760Z,91.17
2019-01-31T06:19:34.799Z,91.07
2019-01-31T06:20:34.739Z,90.97
2019-01-31T06:21:34.830Z,90.86
2019-01-31T06:22:34.730Z,90.23
2019-01-31T06:23:34.770Z,90.55
2019-01-31T06:24:34.708Z,89.91
2019-01-31T06:25:41.762Z,90.12
2019-01-31T06:26:34.672Z,90.12
2019-01-31T06:27:35.711Z,89.70
2019-01-31T06:28:35.722Z,90.12
2019-01-31T06:29:34.644Z,90.33
2019-01-31T06:30:36.683Z,90.23
2019-01-31T06:31:34.623Z,90.12
2019-01-31T06:32:34.715Z,89.91
2019-01-31T06:33:34.595Z,90.65
2019-01-31T06:34:34.606Z,90.65
2019-01-31T06:35:34.564Z,90.55
2019-01-31T06:36:34.644Z,90.65
2019-01-31T06:37:34.556Z,90.23
2019-01-31T06:38:34.536Z,89.49
2019-01-31T06:39:34.536Z,89.91
2019-01-31T06:40:34.616Z,89.81
2019-01-31T06:41:34.498Z,89.91
2019-01-31T06:42:37.766Z,89.59
2019-01-31T06:43:34.481Z,89.91
2019-01-31T06:44:34.477Z,89.74
2019-01-31T06:45:34.558Z,90.06
2019-01-31T06:46:34.448Z,89.84
2019-01-31T06:47:34.538Z,90.12
2019-01-31T06:48:34.429Z,89.84
2019-01-31T06:49:34.420Z,90.06
2019-01-31T06:50:34.499Z,90.16
2019-01-31T06:51:34.400Z,90.16
2019-01-31T06:52:34.480Z,89.95
2019-01-31T06:53:34.440Z,89.84
2019-01-31T06:54:34.361Z,89.84
2019-01-31T06:55:34.792Z,89.95
2019-01-31T06:56:34.402Z,89.74
2019-01-31T06:57:34.353Z,90.37
2019-01-31T06:58:34.503Z,90.16
2019-01-31T06:59:34.313Z,91.00
2019-01-31T07:00:34.394Z,90.58
2019-01-31T07:01:34.296Z,90.16
2019-01-31T07:02:34.364Z,90.26
2019-01-31T07:03:34.265Z,89.99
2019-01-31T07:04:34.345Z,90.48
2019-01-31T07:05:34.248Z,90.06
2019-01-31T07:06:34.287Z,90.06
2019-01-31T07:07:34.225Z,90.16
2019-01-31T07:08:34.327Z,90.37
2019-01-31T07:09:34.187Z,89.95
2019-01-31T07:10:34.177Z,89.84
2019-01-31T07:11:34.914Z,89.99
2019-01-31T07:12:34.257Z,89.99
2019-01-31T07:13:34.151Z,89.42
2019-01-31T07:14:34.220Z,90.16
2019-01-31T07:15:34.129Z,91.00
2019-01-31T07:16:34.159Z,91.11
2019-01-31T07:17:34.129Z,91.11
2019-01-31T07:18:35.119Z,91.15
2019-01-31T07:19:34.081Z,90.90
2019-01-31T07:20:34.070Z,90.48
2019-01-31T07:21:34.082Z,90.37
2019-01-31T07:22:34.114Z,89.64
2019-01-31T07:23:34.042Z,89.84
2019-01-31T07:24:34.113Z,89.53
2019-01-31T07:25:34.021Z,89.78
2019-01-31T07:26:34.042Z,89.57
2019-01-31T07:27:34.013Z,89.68
2019-01-31T07:28:34.083Z,90.10
2019-01-31T07:29:33.984Z,89.89
2019-01-31T07:30:34.014Z,89.89
2019-01-31T07:31:33.983Z,90.83
2019-01-31T07:32:33.946Z,91.05
2019-01-31T07:33:34.064Z,90.83
2019-01-31T07:34:33.933Z,90.73
2019-01-31T07:35:33.959Z,91.05
2019-01-31T07:36:33.916Z,91.57
2019-01-31T07:37:33.896Z,92.41
2019-01-31T07:38:34.006Z,92.10
2019-01-31T07:39:33.878Z,91.99
2019-01-31T07:40:33.888Z,91.99
2019-01-31T07:41:40.911Z,91.78
2019-01-31T07:42:34.848Z,92.06
2019-01-31T07:43:33.851Z,91.74
2019-01-31T07:44:33.858Z,91.96
2019-01-31T07:45:33.813Z,91.22
2019-01-31T07:46:35.840Z,91.11
2019-01-31T07:47:36.653Z,90.80
2019-01-31T07:48:33.880Z,91.32
2019-01-31T07:49:36.554Z,92.33
2019-01-31T07:50:34.793Z,91.81
2019-01-31T07:51:33.731Z,90.86
2019-01-31T07:52:33.721Z,91.42
2019-01-31T07:53:33.722Z,90.75
2019-01-31T07:54:33.732Z,90.80
2019-01-31T07:55:33.694Z,89.95
2019-01-31T07:56:33.783Z,90.26
2019-01-31T07:57:33.753Z,89.95
2019-01-31T07:58:33.799Z,90.26
2019-01-31T07:59:33.684Z,90.58
2019-01-31T08:00:33.644Z,91.11
2019-01-31T08:01:33.725Z,91.11
2019-01-31T08:02:33.625Z,91.11
2019-01-31T08:03:33.705Z,90.90
2019-01-31T08:04:33.595Z,90.69
2019-01-31T08:05:33.686Z,90.37
2019-01-31T08:06:33.575Z,90.58
2019-01-31T08:07:33.627Z,90.16
2019-01-31T08:08:33.566Z,90.23
2019-01-31T08:09:33.560Z,89.64
2019-01-31T08:10:33.537Z,89.64
2019-01-31T08:11:33.598Z,89.74
2019-01-31T08:12:34.702Z,90.37
2019-01-31T08:13:33.519Z,90.12
2019-01-31T08:14:33.752Z,90.33
2019-01-31T08:15:33.460Z,89.91
2019-01-31T08:16:33.540Z,89.76
2019-01-31T08:17:33.467Z,89.24
2019-01-31T08:18:33.460Z,89.34
2019-01-31T08:19:33.440Z,89.09
2019-01-31T08:20:33.501Z,88.25
2019-01-31T08:21:33.411Z,87.68
2019-01-31T08:22:33.472Z,87.68
2019-01-31T08:23:33.403Z,87.12
2019-01-31T08:24:33.473Z,86.91
2019-01-31T08:25:33.363Z,86.24
2019-01-31T08:26:33.416Z,85.93
2019-01-31T08:27:33.344Z,84.94
2019-01-31T08:28:33.385Z,84.20
2019-01-31T08:29:33.316Z,83.68
2019-01-31T08:30:33.385Z,83.79
2019-01-31T08:31:33.299Z,84.35
2019-01-31T08:32:33.317Z,85.23
2019-01-31T08:33:33.306Z,85.13
2019-01-31T08:34:33.280Z,85.82
2019-01-31T08:35:33.318Z,85.57
2019-01-31T08:36:33.294Z,83.64
2019-01-31T08:37:33.277Z,82.45
2019-01-31T08:38:33.248Z,81.68
2019-01-31T08:39:33.218Z,80.21
2019-01-31T08:40:33.222Z,78.18
2019-01-31T08:41:34.261Z,76.89
2019-01-31T08:42:33.192Z,76.57
2019-01-31T08:43:33.221Z,76.37
2019-01-31T08:44:33.160Z,76.89
2019-01-31T08:45:33.153Z,76.37
2019-01-31T08:46:39.724Z,76.79
2019-01-31T08:47:33.131Z,76.82
2019-01-31T08:48:33.173Z,78.22
2019-01-31T08:49:33.113Z,78.46
2019-01-31T08:50:33.104Z,80.42
2019-01-31T08:51:33.092Z,81.05
2019-01-31T08:52:34.163Z,81.82
2019-01-31T08:53:33.084Z,82.45
2019-01-31T08:54:33.114Z,82.87
2019-01-31T08:55:33.085Z,82.35
2019-01-31T08:56:33.037Z,81.99
2019-01-31T08:57:33.116Z,82.35
2019-01-31T08:58:33.038Z,81.93
2019-01-31T08:59:34.075Z,82.03
2019-01-31T09:00:32.986Z,81.40
2019-01-31T09:01:33.014Z,81.82
2019-01-31T09:02:33.666Z,82.56
2019-01-31T09:03:32.967Z,82.45
2019-01-31T09:04:32.987Z,82.31
2019-01-31T09:05:32.929Z,82.42
2019-01-31T09:06:32.951Z,81.79
2019-01-31T09:07:32.920Z,81.96
2019-01-31T09:08:33.078Z,81.85
2019-01-31T09:09:32.919Z,81.50
2019-01-31T09:10:32.869Z,80.66
2019-01-31T09:11:32.860Z,80.14
2019-01-31T09:12:32.850Z,79.90
2019-01-31T09:13:32.951Z,79.68
2019-01-31T09:14:32.838Z,79.20
2019-01-31T09:15:32.943Z,78.99
2019-01-31T09:16:32.802Z,79.51
2019-01-31T09:17:32.873Z,79.05
2019-01-31T09:18:32.813Z,78.70
2019-01-31T09:19:32.815Z,77.80
2019-01-31T09:20:32.774Z,76.06
2019-01-31T09:21:32.854Z,74.66
2019-01-31T09:22:32.755Z,71.20
2019-01-31T09:23:32.837Z,69.05
2019-01-31T09:24:32.735Z,67.15
2019-01-31T09:25:32.826Z,66.28
2019-01-31T09:26:32.706Z,65.14
2019-01-31T09:27:32.704Z,64.21
2019-01-31T09:28:32.706Z,63.90
2019-01-31T09:29:33.723Z,65.34
2019-01-31T09:30:32.670Z,67.82
2019-01-31T09:31:33.814Z,70.11
2019-01-31T09:32:32.650Z,72.78
2019-01-31T09:33:32.718Z,74.42
2019-01-31T09:34:32.618Z,76.26
2019-01-31T09:35:33.620Z,76.82
2019-01-31T09:36:32.600Z,78.43
2019-01-31T09:37:32.640Z,78.25
2019-01-31T09:38:32.581Z,79.20
2019-01-31T09:39:32.613Z,80.18
2019-01-31T09:40:32.561Z,81.12
2019-01-31T09:41:32.602Z,81.23
2019-01-31T09:42:32.531Z,81.12
2019-01-31T09:43:32.522Z,80.94
2019-01-31T09:44:32.523Z,80.42
2019-01-31T09:45:32.573Z,81.43
2019-01-31T09:46:32.484Z,81.79
2019-01-31T09:47:32.514Z,81.99
2019-01-31T09:48:32.472Z,81.37
2019-01-31T09:49:32.471Z,81.05
2019-01-31T09:50:32.515Z,81.37
2019-01-31T09:51:32.426Z,81.23
2019-01-31T09:52:32.446Z,81.43
2019-01-31T09:53:32.407Z,81.23
2019-01-31T09:54:32.426Z,81.75
2019-01-31T09:55:32.387Z,82.17
2019-01-31T09:56:34.755Z,82.76
2019-01-31T09:57:32.357Z,82.06
2019-01-31T09:58:32.469Z,82.17
2019-01-31T09:59:32.358Z,82.23
2019-01-31T10:00:32.338Z,82.23
2019-01-31T10:01:32.369Z,82.23
2019-01-31T10:02:32.319Z,82.23
2019-01-31T10:03:34.777Z,82.76
2019-01-31T10:04:32.311Z,82.13
2019-01-31T10:05:32.270Z,82.23
2019-01-31T10:06:32.274Z,82.23
2019-01-31T10:07:32.272Z,82.03
2019-01-31T10:08:32.253Z,80.66
2019-01-31T10:09:32.362Z,81.46
2019-01-31T10:10:32.266Z,82.26
2019-01-31T10:11:32.250Z,81.63
2019-01-31T10:12:38.425Z,78.67
2019-01-31T10:13:33.361Z,79.61
2019-01-31T10:14:32.193Z,80.20
2019-01-31T10:15:32.224Z,80.06
2019-01-31T10:16:32.173Z,78.18
2019-01-31T10:17:32.191Z,78.35
2019-01-31T10:18:33.145Z,76.33
2019-01-31T10:19:32.200Z,73.52
2019-01-31T10:20:32.173Z,74.84
2019-01-31T10:21:32.137Z,74.38
2019-01-31T10:22:32.161Z,73.76
2019-01-31T10:23:32.157Z,71.43
2019-01-31T10:24:32.164Z,68.17
2019-01-31T10:25:32.103Z,68.17
2019-01-31T10:26:32.038Z,70.36
2019-01-31T10:27:32.029Z,69.59
2019-01-31T10:28:32.019Z,68.13
2019-01-31T10:29:32.109Z,67.58
2019-01-31T10:30:31.990Z,68.32
2019-01-31T10:31:31.990Z,69.46
2019-01-31T10:32:31.972Z,68.73
2019-01-31T10:33:31.961Z,68.24
2019-01-31T10:34:31.961Z,66.26
2019-01-31T10:35:31.974Z,66.89
2019-01-31T10:36:31.932Z,69.59
2019-01-31T10:37:32.003Z,67.51
2019-01-31T10:38:31.972Z,67.72
2019-01-31T10:39:31.895Z,66.36
2019-01-31T10:40:31.914Z,65.64
2019-01-31T10:41:31.894Z,65.19
2019-01-31T10:42:31.954Z,65.09
2019-01-31T10:43:31.903Z,64.56
2019-01-31T10:44:31.925Z,65.19
2019-01-31T10:45:31.835Z,66.75
2019-01-31T10:46:31.926Z,65.61
2019-01-31T10:47:31.823Z,65.30
2019-01-31T10:48:31.857Z,66.02
2019-01-31T10:49:31.986Z,67.45
2019-01-31T10:50:31.778Z,64.85
2019-01-31T10:51:31.868Z,62.95
2019-01-31T10:52:31.759Z,62.43
2019-01-31T10:53:32.821Z,62.95
2019-01-31T10:54:31.749Z,63.12
2019-01-31T10:55:31.729Z,64.79
2019-01-31T10:56:31.711Z,62.22
2019-01-31T10:57:31.770Z,61.98
2019-01-31T10:58:31.691Z,61.46
2019-01-31T10:59:31.754Z,60.11
2019-01-31T11:00:31.673Z,60.73
2019-01-31T11:01:31.742Z,60.52
2019-01-31T11:02:31.642Z,61.15
2019-01-31T11:03:33.728Z,61.77
2019-01-31T11:04:31.623Z,63.33
2019-01-31T11:05:31.606Z,62.92
2019-01-31T11:06:31.584Z,62.29
2019-01-31T11:07:31.645Z,63.85
2019-01-31T11:08:31.564Z,64.17
2019-01-31T11:09:31.626Z,59.28
2019-01-31T11:10:31.575Z,57.82
2019-01-31T11:11:31.517Z,59.69
2019-01-31T11:12:31.506Z,60.11
2019-01-31T11:13:31.558Z,59.17
2019-01-31T11:14:31.508Z,60.11
2019-01-31T11:15:32.551Z,59.69
2019-01-31T11:16:31.558Z,61.46
2019-01-31T11:17:31.462Z,59.48
2019-01-31T11:18:32.523Z,62.81
2019-01-31T11:19:31.463Z,58.86
2019-01-31T11:20:38.183Z,58.34
2019-01-31T11:21:31.424Z,59.38
2019-01-31T11:22:32.493Z,61.25
2019-01-31T11:23:32.128Z,60.94
2019-01-31T11:24:31.701Z,62.19
2019-01-31T11:25:31.354Z,61.25
2019-01-31T11:26:31.454Z,58.76
2019-01-31T11:27:31.363Z,57.30
2019-01-31T11:28:31.383Z,57.30
2019-01-31T11:29:31.345Z,58.44
2019-01-31T11:30:32.334Z,59.48
2019-01-31T11:31:31.304Z,62.08
2019-01-31T11:32:31.309Z,57.82
2019-01-31T11:33:31.299Z,59.28
2019-01-31T11:34:33.079Z,56.78
2019-01-31T11:35:31.267Z,57.82
2019-01-31T11:36:31.329Z,60.31
2019-01-31T11:37:31.251Z,60.31
2019-01-31T11:38:31.258Z,61.36
2019-01-31T11:39:31.269Z,59.38
2019-01-31T11:40:31.299Z,61.36
2019-01-31T11:41:31.266Z,60.14
2019-01-31T11:42:31.222Z,59.93
2019-01-31T11:43:31.182Z,59.82
2019-01-31T11:44:31.270Z,58.03
2019-01-31T11:45:31.172Z,59.69
2019-01-31T11:46:39.697Z,59.93
2019-01-31T11:47:31.132Z,57.61
2019-01-31T11:48:31.123Z,59.90
2019-01-31T11:49:31.111Z,61.57
2019-01-31T11:50:32.146Z,57.82
2019-01-31T11:51:31.073Z,59.07
2019-01-31T11:52:31.103Z,60.11
2019-01-31T11:53:31.063Z,58.97
2019-01-31T11:54:31.146Z,59.80
2019-01-31T11:55:31.247Z,59.38
2019-01-31T11:56:31.076Z,59.28
2019-01-31T11:57:31.036Z,60.31
2019-01-31T11:58:31.116Z,60.31
2019-01-31T11:59:30.976Z,59.28
2019-01-31T12:00:31.086Z,61.28
2019-01-31T12:01:30.967Z,61.90
2019-01-31T12:02:30.978Z,60.76
2019-01-31T12:03:30.939Z,60.86
2019-01-31T12:04:30.939Z,61.18
2019-01-31T12:05:31.059Z,60.86
2019-01-31T12:06:30.909Z,60.24
2019-01-31T12:07:30.920Z,59.61
2019-01-31T12:08:30.879Z,57.51
2019-01-31T12:09:30.871Z,60.76
2019-01-31T12:10:30.880Z,60.55
2019-01-31T12:11:30.881Z,58.86
2019-01-31T12:12:30.842Z,60.76
2019-01-31T12:13:30.932Z,60.66
2019-01-31T12:14:30.815Z,57.85
2019-01-31T12:15:30.824Z,58.65
2019-01-31T12:16:30.834Z,59.09
2019-01-31T12:17:30.777Z,61.77
2019-01-31T12:18:31.784Z,59.17
2019-01-31T12:19:30.774Z,60.97
2019-01-31T12:20:30.780Z,58.44
2019-01-31T12:21:30.745Z,59.20
2019-01-31T12:22:31.776Z,59.41
2019-01-31T12:23:32.348Z,56.88
2019-01-31T12:24:30.786Z,58.58
2019-01-31T12:25:30.717Z,58.65
2019-01-31T12:26:30.718Z,58.37
2019-01-31T12:27:30.677Z,60.35
2019-01-31T12:28:30.758Z,57.75
2019-01-31T12:29:30.659Z,59.41
2019-01-31T12:30:33.709Z,59.61
2019-01-31T12:31:30.622Z,58.99
2019-01-31T12:32:32.670Z,58.99
2019-01-31T12:33:31.088Z,58.47
2019-01-31T12:34:30.662Z,60.97
2019-01-31T12:35:30.601Z,62.63
2019-01-31T12:36:30.581Z,62.32
2019-01-31T12:37:30.573Z,63.81
2019-01-31T12:38:36.765Z,62.87
2019-01-31T12:39:31.543Z,63.08
2019-01-31T12:40:30.625Z,63.73
2019-01-31T12:41:30.555Z,63.94
2019-01-31T12:42:30.515Z,64.46
2019-01-31T12:43:35.339Z,63.00
2019-01-31T12:44:31.486Z,63.00
2019-01-31T12:45:30.545Z,63.94
2019-01-31T12:46:32.693Z,62.17
2019-01-31T12:47:30.457Z,61.13
2019-01-31T12:48:31.536Z,62.90
2019-01-31T12:49:30.419Z,63.00
2019-01-31T12:50:30.428Z,65.09
2019-01-31T12:51:30.399Z,64.87
2019-01-31T12:52:30.388Z,63.73